Accueil
METAR-TAF:

METAR-TAF

Aéroports :

Mayagüez, Porto Rico, États-Unis

latitude: 18-16N, longitude: 067-09W, altitude: 9 m

METAR: absent

Heure: 04:37 (08:37 UTC)

Prévision

Le bulletin a été fait il y a 2 heures et 58 minutes, à 05:39 UTC
Prévision valable du 29 à 06 UTC au 30 à 06 UTC
Vent 6 kt de direction variable
Visibilité: 10 km
Quelques nuages à une hauteur de 2500 ft
Nuages épars à une hauteur de 3500 ft
A partir de 29 à 1500 UTC
Vent 11 kt de ouest/nord-ouest
Visibilité: 10 km
Nuages épars à une hauteur de 2500 ft, Cumulonimbus.
Nuages fragmentés à une hauteur de 3500 ft
orage à proximité
A partir de 29 à 2200 UTC
Vent 6 kt de direction variable
Visibilité: 10 km
Nuages épars à une hauteur de 2500 ft
Nuages épars à une hauteur de 4000 ft

TAF: TJMZ 290539Z 2906/3006 VRB06KT P6SM FEW025 SCT035 FM291500 29011KT P6SM VCTS SCT025CB BKN035 FM292200 VRB06KT P6SM SCT025 SCT040 AMD NOT SKED

Observations et prévisions météorologiques de plus de 4000 aéroports (messages METAR et TAF).

Les stations disponibles sont représentées par des disques jaunes et rouges sur la carte.

Passer la souris dessus pour voir le nom de la station.

Cliquer dessus pour voir les observations et prévisions météorologiques.

Pour changer de carte: cliquez sur les boutons verts avec une croix noire pour zoomer, sur le bouton vert avec un tiret pour effectuer un zoom arrière, ou sur les flèches vertes pour les cartes adjacentes.


METAR-TAF: